sensor_id;sensor_type;location;lat;lon;timestamp;temperature;humidity
5850;DHT22;2951;47.712;9.400;2023-05-07T00:00:18;15.90;99.90
5850;DHT22;2951;47.712;9.400;2023-05-07T00:02:45;15.80;99.90
5850;DHT22;2951;47.712;9.400;2023-05-07T00:05:12;15.70;99.90
5850;DHT22;2951;47.712;9.400;2023-05-07T00:07:39;15.60;99.90
5850;DHT22;2951;47.712;9.400;2023-05-07T00:10:06;15.50;99.90
5850;DHT22;2951;47.712;9.400;2023-05-07T00:12:33;15.40;99.90
5850;DHT22;2951;47.712;9.400;2023-05-07T00:15:02;15.30;99.90
5850;DHT22;2951;47.712;9.400;2023-05-07T00:17:29;15.20;99.90
5850;DHT22;2951;47.712;9.400;2023-05-07T00:19:56;15.10;99.90
5850;DHT22;2951;47.712;9.400;2023-05-07T00:22:22;15.10;99.90
5850;DHT22;2951;47.712;9.400;2023-05-07T00:24:49;15.20;99.90
5850;DHT22;2951;47.712;9.400;2023-05-07T00:27:16;15.10;99.90
5850;DHT22;2951;47.712;9.400;2023-05-07T00:29:43;15.10;99.90
5850;DHT22;2951;47.712;9.400;2023-05-07T00:32:09;15.10;99.90
5850;DHT22;2951;47.712;9.400;2023-05-07T00:34:36;15.20;99.90
5850;DHT22;2951;47.712;9.400;2023-05-07T00:37:03;15.20;99.90
5850;DHT22;2951;47.712;9.400;2023-05-07T00:39:32;15.20;99.90
5850;DHT22;2951;47.712;9.400;2023-05-07T00:41:58;15.20;99.90
5850;DHT22;2951;47.712;9.400;2023-05-07T00:44:25;15.20;99.90
5850;DHT22;2951;47.712;9.400;2023-05-07T00:46:53;15.20;99.90
5850;DHT22;2951;47.712;9.400;2023-05-07T00:49:20;15.20;99.90
5850;DHT22;2951;47.712;9.400;2023-05-07T00:51:46;15.20;99.90
5850;DHT22;2951;47.712;9.400;2023-05-07T00:54:13;15.10;99.90
5850;DHT22;2951;47.712;9.400;2023-05-07T00:56:40;15.10;99.90
5850;DHT22;2951;47.712;9.400;2023-05-07T00:59:07;15.00;99.90
5850;DHT22;2951;47.712;9.400;2023-05-07T01:01:34;14.70;99.90
5850;DHT22;2951;47.712;9.400;2023-05-07T01:04:01;14.60;99.90
5850;DHT22;2951;47.712;9.400;2023-05-07T01:06:28;14.50;99.90
5850;DHT22;2951;47.712;9.400;2023-05-07T01:08:55;14.30;99.90
5850;DHT22;2951;47.712;9.400;2023-05-07T01:11:23;14.20;99.90
5850;DHT22;2951;47.712;9.400;2023-05-07T01:13:51;14.30;99.90
5850;DHT22;2951;47.712;9.400;2023-05-07T01:16:19;14.40;99.90
5850;DHT22;2951;47.712;9.400;2023-05-07T01:18:45;14.40;99.90
5850;DHT22;2951;47.712;9.400;2023-05-07T01:21:15;14.40;99.90
5850;DHT22;2951;47.712;9.400;2023-05-07T01:23:42;14.40;99.90
5850;DHT22;2951;47.712;9.400;2023-05-07T01:26:10;14.50;99.90
5850;DHT22;2951;47.712;9.400;2023-05-07T01:28:37;14.50;99.90
5850;DHT22;2951;47.712;9.400;2023-05-07T01:31:04;14.40;99.90
5850;DHT22;2951;47.712;9.400;2023-05-07T01:33:33;14.30;99.90
5850;DHT22;2951;47.712;9.400;2023-05-07T01:36:01;14.30;99.90
5850;DHT22;2951;47.712;9.400;2023-05-07T01:38:30;14.20;99.90
5850;DHT22;2951;47.712;9.400;2023-05-07T01:40:57;14.10;99.90
5850;DHT22;2951;47.712;9.400;2023-05-07T01:43:24;14.00;99.90
5850;DHT22;2951;47.712;9.400;2023-05-07T01:45:51;14.00;99.90
5850;DHT22;2951;47.712;9.400;2023-05-07T01:48:19;14.00;99.90
5850;DHT22;2951;47.712;9.400;2023-05-07T01:50:45;13.90;99.90
5850;DHT22;2951;47.712;9.400;2023-05-07T01:53:13;13.80;99.90
5850;DHT22;2951;47.712;9.400;2023-05-07T01:55:39;13.80;99.90
5850;DHT22;2951;47.712;9.400;2023-05-07T01:58:06;13.80;99.90
5850;DHT22;2951;47.712;9.400;2023-05-07T02:00:33;13.80;99.90
5850;DHT22;2951;47.712;9.400;2023-05-07T02:03:00;13.90;99.90
5850;DHT22;2951;47.712;9.400;2023-05-07T02:05:26;13.80;99.90
5850;DHT22;2951;47.712;9.400;2023-05-07T02:07:53;13.80;99.90
5850;DHT22;2951;47.712;9.400;2023-05-07T02:10:20;13.70;99.90
5850;DHT22;2951;47.712;9.400;2023-05-07T02:12:46;13.70;99.90
5850;DHT22;2951;47.712;9.400;2023-05-07T02:15:13;13.60;99.90
5850;DHT22;2951;47.712;9.400;2023-05-07T02:17:58;13.60;99.90
5850;DHT22;2951;47.712;9.400;2023-05-07T02:20:26;13.60;99.90
5850;DHT22;2951;47.712;9.400;2023-05-07T02:22:52;13.40;99.90
5850;DHT22;2951;47.712;9.400;2023-05-07T02:25:19;13.50;99.90
5850;DHT22;2951;47.712;9.400;2023-05-07T02:27:46;13.50;99.90
5850;DHT22;2951;47.712;9.400;2023-05-07T02:30:13;13.60;99.90
5850;DHT22;2951;47.712;9.400;2023-05-07T02:32:40;13.50;99.90
5850;DHT22;2951;47.712;9.400;2023-05-07T02:35:07;13.50;99.90
5850;DHT22;2951;47.712;9.400;2023-05-07T02:37:33;13.40;99.90
5850;DHT22;2951;47.712;9.400;2023-05-07T02:40:00;13.40;99.90
5850;DHT22;2951;47.712;9.400;2023-05-07T02:42:27;13.30;99.90
5850;DHT22;2951;47.712;9.400;2023-05-07T02:44:53;13.30;99.90
5850;DHT22;2951;47.712;9.400;2023-05-07T02:47:20;13.30;99.90
5850;DHT22;2951;47.712;9.400;2023-05-07T02:49:47;13.20;99.90
5850;DHT22;2951;47.712;9.400;2023-05-07T02:52:13;13.10;99.90
5850;DHT22;2951;47.712;9.400;2023-05-07T02:54:40;13.20;99.90
5850;DHT22;2951;47.712;9.400;2023-05-07T02:57:07;13.20;99.90
5850;DHT22;2951;47.712;9.400;2023-05-07T02:59:33;13.30;99.90
5850;DHT22;2951;47.712;9.400;2023-05-07T03:02:00;13.20;99.90
5850;DHT22;2951;47.712;9.400;2023-05-07T03:04:26;13.20;99.90
5850;DHT22;2951;47.712;9.400;2023-05-07T03:06:53;13.20;99.90
5850;DHT22;2951;47.712;9.400;2023-05-07T03:09:20;13.10;99.90
5850;DHT22;2951;47.712;9.400;2023-05-07T03:11:47;13.10;99.90
5850;DHT22;2951;47.712;9.400;2023-05-07T03:14:13;13.00;99.90
5850;DHT22;2951;47.712;9.400;2023-05-07T03:16:40;12.90;99.90
5850;DHT22;2951;47.712;9.400;2023-05-07T03:19:07;12.80;99.90
5850;DHT22;2951;47.712;9.400;2023-05-07T03:21:33;12.70;99.90
5850;DHT22;2951;47.712;9.400;2023-05-07T03:24:00;12.70;99.90
5850;DHT22;2951;47.712;9.400;2023-05-07T03:26:27;12.70;99.90
5850;DHT22;2951;47.712;9.400;2023-05-07T03:28:54;12.60;99.90
5850;DHT22;2951;47.712;9.400;2023-05-07T03:31:21;12.60;99.90
5850;DHT22;2951;47.712;9.400;2023-05-07T03:33:52;12.50;99.90
5850;DHT22;2951;47.712;9.400;2023-05-07T03:36:19;12.40;99.90
5850;DHT22;2951;47.712;9.400;2023-05-07T03:38:46;12.40;99.90
5850;DHT22;2951;47.712;9.400;2023-05-07T03:41:13;12.50;99.90
5850;DHT22;2951;47.712;9.400;2023-05-07T03:43:39;12.60;99.90
5850;DHT22;2951;47.712;9.400;2023-05-07T03:46:06;12.50;99.90
5850;DHT22;2951;47.712;9.400;2023-05-07T03:48:33;12.50;99.90
5850;DHT22;2951;47.712;9.400;2023-05-07T03:51:00;12.50;99.90
5850;DHT22;2951;47.712;9.400;2023-05-07T03:53:26;12.50;99.90
5850;DHT22;2951;47.712;9.400;2023-05-07T03:55:53;12.50;99.90
5850;DHT22;2951;47.712;9.400;2023-05-07T03:58:20;12.40;99.90
5850;DHT22;2951;47.712;9.400;2023-05-07T04:00:46;12.40;99.90
5850;DHT22;2951;47.712;9.400;2023-05-07T04:03:13;12.30;99.90
5850;DHT22;2951;47.712;9.400;2023-05-07T04:05:40;12.20;99.90
5850;DHT22;2951;47.712;9.400;2023-05-07T04:08:08;12.30;99.90
5850;DHT22;2951;47.712;9.400;2023-05-07T04:10:34;12.40;99.90
5850;DHT22;2951;47.712;9.400;2023-05-07T04:13:01;12.30;99.90
5850;DHT22;2951;47.712;9.400;2023-05-07T04:15:28;12.30;99.90
5850;DHT22;2951;47.712;9.400;2023-05-07T04:17:55;12.30;99.90
5850;DHT22;2951;47.712;9.400;2023-05-07T04:20:21;12.40;99.90
5850;DHT22;2951;47.712;9.400;2023-05-07T04:22:48;12.30;99.90
5850;DHT22;2951;47.712;9.400;2023-05-07T04:25:15;12.40;99.90
5850;DHT22;2951;47.712;9.400;2023-05-07T04:27:42;12.40;99.90
5850;DHT22;2951;47.712;9.400;2023-05-07T04:30:09;12.30;99.90
5850;DHT22;2951;47.712;9.400;2023-05-07T04:32:36;12.30;99.90
5850;DHT22;2951;47.712;9.400;2023-05-07T04:35:04;12.40;99.90
5850;DHT22;2951;47.712;9.400;2023-05-07T04:37:31;12.40;99.90
5850;DHT22;2951;47.712;9.400;2023-05-07T04:39:58;12.50;99.90
5850;DHT22;2951;47.712;9.400;2023-05-07T04:42:25;12.50;99.90
5850;DHT22;2951;47.712;9.400;2023-05-07T04:44:52;12.60;99.90
5850;DHT22;2951;47.712;9.400;2023-05-07T04:47:19;12.70;99.90
5850;DHT22;2951;47.712;9.400;2023-05-07T04:49:46;12.70;99.90
5850;DHT22;2951;47.712;9.400;2023-05-07T04:52:12;12.80;99.90
5850;DHT22;2951;47.712;9.400;2023-05-07T04:54:39;12.90;99.90
5850;DHT22;2951;47.712;9.400;2023-05-07T04:57:06;12.90;99.90
5850;DHT22;2951;47.712;9.400;2023-05-07T04:59:32;12.90;99.90
5850;DHT22;2951;47.712;9.400;2023-05-07T05:01:59;13.00;99.90
5850;DHT22;2951;47.712;9.400;2023-05-07T05:04:26;13.10;99.90
5850;DHT22;2951;47.712;9.400;2023-05-07T05:06:53;13.20;99.90
5850;DHT22;2951;47.712;9.400;2023-05-07T05:09:20;13.20;99.90
5850;DHT22;2951;47.712;9.400;2023-05-07T05:11:47;13.30;99.90
5850;DHT22;2951;47.712;9.400;2023-05-07T05:14:13;13.40;99.90
5850;DHT22;2951;47.712;9.400;2023-05-07T05:16:40;13.40;99.90
5850;DHT22;2951;47.712;9.400;2023-05-07T05:19:07;13.50;99.90
5850;DHT22;2951;47.712;9.400;2023-05-07T05:21:33;13.40;99.90
5850;DHT22;2951;47.712;9.400;2023-05-07T05:24:00;13.30;99.90
5850;DHT22;2951;47.712;9.400;2023-05-07T05:26:27;13.20;99.90
5850;DHT22;2951;47.712;9.400;2023-05-07T05:28:53;13.20;99.90
5850;DHT22;2951;47.712;9.400;2023-05-07T05:31:20;13.20;99.90
5850;DHT22;2951;47.712;9.400;2023-05-07T05:33:47;13.20;99.90
5850;DHT22;2951;47.712;9.400;2023-05-07T05:36:14;13.40;99.90
5850;DHT22;2951;47.712;9.400;2023-05-07T05:38:41;13.50;99.90
5850;DHT22;2951;47.712;9.400;2023-05-07T05:41:07;13.60;99.90
5850;DHT22;2951;47.712;9.400;2023-05-07T05:43:34;13.70;99.90
5850;DHT22;2951;47.712;9.400;2023-05-07T05:46:00;13.60;99.90
5850;DHT22;2951;47.712;9.400;2023-05-07T05:48:28;13.70;99.90
5850;DHT22;2951;47.712;9.400;2023-05-07T05:50:55;13.80;99.90
5850;DHT22;2951;47.712;9.400;2023-05-07T05:53:21;13.90;99.90
5850;DHT22;2951;47.712;9.400;2023-05-07T05:55:48;14.00;99.90
5850;DHT22;2951;47.712;9.400;2023-05-07T05:58:15;14.10;99.90
5850;DHT22;2951;47.712;9.400;2023-05-07T06:00:42;14.20;99.90
5850;DHT22;2951;47.712;9.400;2023-05-07T06:03:09;14.30;99.90
5850;DHT22;2951;47.712;9.400;2023-05-07T06:05:36;14.40;99.90
5850;DHT22;2951;47.712;9.400;2023-05-07T06:08:03;14.50;99.90
5850;DHT22;2951;47.712;9.400;2023-05-07T06:10:30;14.70;99.90
5850;DHT22;2951;47.712;9.400;2023-05-07T06:12:57;14.90;99.90
5850;DHT22;2951;47.712;9.400;2023-05-07T06:15:23;15.10;99.90
5850;DHT22;2951;47.712;9.400;2023-05-07T06:17:50;15.20;99.90
5850;DHT22;2951;47.712;9.400;2023-05-07T06:20:17;15.40;99.90
5850;DHT22;2951;47.712;9.400;2023-05-07T06:22:43;15.30;99.90
5850;DHT22;2951;47.712;9.400;2023-05-07T06:25:10;15.30;99.90
5850;DHT22;2951;47.712;9.400;2023-05-07T06:27:36;15.50;99.90
5850;DHT22;2951;47.712;9.400;2023-05-07T06:30:03;15.60;99.90
5850;DHT22;2951;47.712;9.400;2023-05-07T06:32:30;15.80;99.90
5850;DHT22;2951;47.712;9.400;2023-05-07T06:34:57;15.90;99.90
5850;DHT22;2951;47.712;9.400;2023-05-07T06:37:24;16.00;99.90
5850;DHT22;2951;47.712;9.400;2023-05-07T06:39:51;16.30;99.90
5850;DHT22;2951;47.712;9.400;2023-05-07T06:42:17;16.40;99.90
5850;DHT22;2951;47.712;9.400;2023-05-07T06:44:44;16.50;99.90
5850;DHT22;2951;47.712;9.400;2023-05-07T06:47:10;16.60;99.90
5850;DHT22;2951;47.712;9.400;2023-05-07T06:49:39;16.60;99.90
5850;DHT22;2951;47.712;9.400;2023-05-07T06:52:06;16.70;99.90
5850;DHT22;2951;47.712;9.400;2023-05-07T06:54:33;16.70;99.90
5850;DHT22;2951;47.712;9.400;2023-05-07T06:56:59;16.80;99.90
5850;DHT22;2951;47.712;9.400;2023-05-07T06:59:27;16.80;99.90
5850;DHT22;2951;47.712;9.400;2023-05-07T07:01:53;16.80;99.90
5850;DHT22;2951;47.712;9.400;2023-05-07T07:04:20;16.80;99.90
5850;DHT22;2951;47.712;9.400;2023-05-07T07:06:49;16.80;99.90
5850;DHT22;2951;47.712;9.400;2023-05-07T07:09:18;16.80;99.90
5850;DHT22;2951;47.712;9.400;2023-05-07T07:11:44;16.70;99.90
5850;DHT22;2951;47.712;9.400;2023-05-07T07:14:11;16.60;99.90
5850;DHT22;2951;47.712;9.400;2023-05-07T07:16:37;16.60;99.90
5850;DHT22;2951;47.712;9.400;2023-05-07T07:19:04;16.60;99.90
5850;DHT22;2951;47.712;9.400;2023-05-07T07:21:31;16.60;99.90
5850;DHT22;2951;47.712;9.400;2023-05-07T07:23:58;16.70;99.90
5850;DHT22;2951;47.712;9.400;2023-05-07T07:26:25;16.70;99.90
5850;DHT22;2951;47.712;9.400;2023-05-07T07:28:51;16.70;99.90
5850;DHT22;2951;47.712;9.400;2023-05-07T07:31:18;16.80;99.90
5850;DHT22;2951;47.712;9.400;2023-05-07T07:33:45;16.90;99.90
5850;DHT22;2951;47.712;9.400;2023-05-07T07:36:11;17.00;99.90
5850;DHT22;2951;47.712;9.400;2023-05-07T07:38:38;16.90;99.90
5850;DHT22;2951;47.712;9.400;2023-05-07T07:41:05;17.00;99.90
5850;DHT22;2951;47.712;9.400;2023-05-07T07:43:31;17.10;99.90
5850;DHT22;2951;47.712;9.400;2023-05-07T07:45:58;17.30;99.90
5850;DHT22;2951;47.712;9.400;2023-05-07T07:48:25;17.40;99.90
5850;DHT22;2951;47.712;9.400;2023-05-07T07:50:52;17.40;99.90
5850;DHT22;2951;47.712;9.400;2023-05-07T07:53:18;17.30;99.90
5850;DHT22;2951;47.712;9.400;2023-05-07T07:55:45;17.40;99.90
5850;DHT22;2951;47.712;9.400;2023-05-07T07:58:12;17.60;99.90
5850;DHT22;2951;47.712;9.400;2023-05-07T08:00:39;17.70;99.90
5850;DHT22;2951;47.712;9.400;2023-05-07T08:03:05;17.60;99.90
5850;DHT22;2951;47.712;9.400;2023-05-07T08:05:34;17.70;99.90
5850;DHT22;2951;47.712;9.400;2023-05-07T08:08:00;17.60;99.90
5850;DHT22;2951;47.712;9.400;2023-05-07T08:10:27;17.70;99.90
5850;DHT22;2951;47.712;9.400;2023-05-07T08:12:54;17.80;99.90
5850;DHT22;2951;47.712;9.400;2023-05-07T08:15:21;17.80;99.90
5850;DHT22;2951;47.712;9.400;2023-05-07T08:17:47;17.90;99.90
5850;DHT22;2951;47.712;9.400;2023-05-07T08:20:14;18.00;99.90
5850;DHT22;2951;47.712;9.400;2023-05-07T08:22:41;18.20;99.90
5850;DHT22;2951;47.712;9.400;2023-05-07T08:25:07;18.20;99.90
5850;DHT22;2951;47.712;9.400;2023-05-07T08:27:34;18.30;99.90
5850;DHT22;2951;47.712;9.400;2023-05-07T08:30:01;18.40;99.90
5850;DHT22;2951;47.712;9.400;2023-05-07T08:32:28;18.40;99.90
5850;DHT22;2951;47.712;9.400;2023-05-07T08:34:55;18.50;99.90
5850;DHT22;2951;47.712;9.400;2023-05-07T08:37:22;18.70;99.90
5850;DHT22;2951;47.712;9.400;2023-05-07T08:39:48;18.50;99.90
5850;DHT22;2951;47.712;9.400;2023-05-07T08:42:16;18.50;99.90
5850;DHT22;2951;47.712;9.400;2023-05-07T08:44:43;18.70;99.90
5850;DHT22;2951;47.712;9.400;2023-05-07T08:47:12;18.90;99.90
5850;DHT22;2951;47.712;9.400;2023-05-07T08:49:39;18.90;99.90
5850;DHT22;2951;47.712;9.400;2023-05-07T08:52:05;19.10;99.90
5850;DHT22;2951;47.712;9.400;2023-05-07T08:54:34;18.90;99.90
5850;DHT22;2951;47.712;9.400;2023-05-07T08:57:03;19.10;99.90
5850;DHT22;2951;47.712;9.400;2023-05-07T08:59:30;19.10;99.90
5850;DHT22;2951;47.712;9.400;2023-05-07T09:01:56;19.20;99.90
5850;DHT22;2951;47.712;9.400;2023-05-07T09:04:23;19.30;99.90
5850;DHT22;2951;47.712;9.400;2023-05-07T09:06:50;19.40;99.90
5850;DHT22;2951;47.712;9.400;2023-05-07T09:09:18;19.30;99.90
5850;DHT22;2951;47.712;9.400;2023-05-07T09:11:47;19.40;99.90
5850;DHT22;2951;47.712;9.400;2023-05-07T09:14:14;19.60;99.90
5850;DHT22;2951;47.712;9.400;2023-05-07T09:16:40;19.50;99.90
5850;DHT22;2951;47.712;9.400;2023-05-07T09:19:07;19.50;99.90
5850;DHT22;2951;47.712;9.400;2023-05-07T09:21:34;19.70;99.90
5850;DHT22;2951;47.712;9.400;2023-05-07T09:24:01;19.80;99.90
5850;DHT22;2951;47.712;9.400;2023-05-07T09:26:28;19.90;99.90
5850;DHT22;2951;47.712;9.400;2023-05-07T09:28:55;20.00;99.90
5850;DHT22;2951;47.712;9.400;2023-05-07T09:31:21;20.10;99.90
5850;DHT22;2951;47.712;9.400;2023-05-07T09:33:50;20.00;99.90
5850;DHT22;2951;47.712;9.400;2023-05-07T09:36:16;20.10;99.90
5850;DHT22;2951;47.712;9.400;2023-05-07T09:38:44;20.10;99.90
5850;DHT22;2951;47.712;9.400;2023-05-07T09:41:12;20.10;99.90
5850;DHT22;2951;47.712;9.400;2023-05-07T09:43:39;20.30;99.90
5850;DHT22;2951;47.712;9.400;2023-05-07T09:46:13;20.40;99.90
5850;DHT22;2951;47.712;9.400;2023-05-07T09:48:41;20.50;99.90
5850;DHT22;2951;47.712;9.400;2023-05-07T09:53:54;20.80;99.90
5850;DHT22;2951;47.712;9.400;2023-05-07T09:56:22;21.00;99.90
5850;DHT22;2951;47.712;9.400;2023-05-07T09:58:49;21.00;99.90
5850;DHT22;2951;47.712;9.400;2023-05-07T10:01:17;21.00;99.90
5850;DHT22;2951;47.712;9.400;2023-05-07T10:03:47;21.10;99.90
5850;DHT22;2951;47.712;9.400;2023-05-07T10:06:14;21.10;99.90
5850;DHT22;2951;47.712;9.400;2023-05-07T10:08:42;21.10;99.90
5850;DHT22;2951;47.712;9.400;2023-05-07T10:11:09;21.00;99.90
5850;DHT22;2951;47.712;9.400;2023-05-07T10:13:38;21.00;99.90
5850;DHT22;2951;47.712;9.400;2023-05-07T10:16:06;20.90;99.90
5850;DHT22;2951;47.712;9.400;2023-05-07T10:18:32;21.00;99.90
5850;DHT22;2951;47.712;9.400;2023-05-07T10:23:43;21.30;99.90
5850;DHT22;2951;47.712;9.400;2023-05-07T10:26:11;21.50;99.90
5850;DHT22;2951;47.712;9.400;2023-05-07T10:28:39;21.50;99.90
5850;DHT22;2951;47.712;9.400;2023-05-07T10:31:10;21.80;99.90
5850;DHT22;2951;47.712;9.400;2023-05-07T10:33:42;21.80;99.90
5850;DHT22;2951;47.712;9.400;2023-05-07T10:36:11;21.60;99.90
5850;DHT22;2951;47.712;9.400;2023-05-07T10:38:39;21.90;99.90
5850;DHT22;2951;47.712;9.400;2023-05-07T10:41:07;21.80;99.90
5850;DHT22;2951;47.712;9.400;2023-05-07T10:43:40;21.80;99.90
5850;DHT22;2951;47.712;9.400;2023-05-07T10:46:11;21.90;99.90
5850;DHT22;2951;47.712;9.400;2023-05-07T10:51:23;22.10;99.90
5850;DHT22;2951;47.712;9.400;2023-05-07T10:54:17;22.10;99.90
5850;DHT22;2951;47.712;9.400;2023-05-07T10:56:37;22.20;99.90
5850;DHT22;2951;47.712;9.400;2023-05-07T11:01:50;22.20;99.90
5850;DHT22;2951;47.712;9.400;2023-05-07T11:04:18;22.40;99.90
5850;DHT22;2951;47.712;9.400;2023-05-07T11:15:07;22.20;99.90
5850;DHT22;2951;47.712;9.400;2023-05-07T11:17:34;22.60;99.90
5850;DHT22;2951;47.712;9.400;2023-05-07T11:20:02;22.60;99.90
5850;DHT22;2951;47.712;9.400;2023-05-07T11:25:01;22.40;99.90
5850;DHT22;2951;47.712;9.400;2023-05-07T11:27:28;22.30;99.90
5850;DHT22;2951;47.712;9.400;2023-05-07T11:29:55;22.60;99.90
5850;DHT22;2951;47.712;9.400;2023-05-07T11:32:22;23.00;99.90
5850;DHT22;2951;47.712;9.400;2023-05-07T11:34:56;23.10;99.90
5850;DHT22;2951;47.712;9.400;2023-05-07T11:37:23;23.30;99.90
5850;DHT22;2951;47.712;9.400;2023-05-07T11:39:51;23.50;99.90
5850;DHT22;2951;47.712;9.400;2023-05-07T11:42:25;23.20;99.90
5850;DHT22;2951;47.712;9.400;2023-05-07T11:44:52;23.20;99.90
5850;DHT22;2951;47.712;9.400;2023-05-07T11:47:19;23.30;99.90
5850;DHT22;2951;47.712;9.400;2023-05-07T11:49:46;23.40;99.90
5850;DHT22;2951;47.712;9.400;2023-05-07T11:52:14;23.50;99.90
5850;DHT22;2951;47.712;9.400;2023-05-07T11:54:41;23.60;99.90
5850;DHT22;2951;47.712;9.400;2023-05-07T11:57:14;23.30;99.90
5850;DHT22;2951;47.712;9.400;2023-05-07T11:59:41;23.30;99.90
5850;DHT22;2951;47.712;9.400;2023-05-07T12:02:07;23.40;99.90
5850;DHT22;2951;47.712;9.400;2023-05-07T12:04:34;23.50;99.90
5850;DHT22;2951;47.712;9.400;2023-05-07T12:07:01;23.10;99.90
5850;DHT22;2951;47.712;9.400;2023-05-07T12:09:28;23.20;99.90
5850;DHT22;2951;47.712;9.400;2023-05-07T12:11:55;23.40;99.90
5850;DHT22;2951;47.712;9.400;2023-05-07T12:14:26;23.20;99.90
5850;DHT22;2951;47.712;9.400;2023-05-07T12:16:53;23.10;99.90
5850;DHT22;2951;47.712;9.400;2023-05-07T12:19:20;23.30;99.90
5850;DHT22;2951;47.712;9.400;2023-05-07T12:21:47;23.50;99.90
5850;DHT22;2951;47.712;9.400;2023-05-07T12:24:16;23.60;99.90
5850;DHT22;2951;47.712;9.400;2023-05-07T12:26:46;23.60;99.90
5850;DHT22;2951;47.712;9.400;2023-05-07T12:29:14;23.70;99.90
5850;DHT22;2951;47.712;9.400;2023-05-07T12:31:41;23.80;99.90
5850;DHT22;2951;47.712;9.400;2023-05-07T12:34:08;23.90;99.90
5850;DHT22;2951;47.712;9.400;2023-05-07T12:36:37;24.00;99.90
5850;DHT22;2951;47.712;9.400;2023-05-07T12:39:05;23.80;99.90
5850;DHT22;2951;47.712;9.400;2023-05-07T12:41:35;24.10;99.90
5850;DHT22;2951;47.712;9.400;2023-05-07T12:44:03;24.10;99.90
5850;DHT22;2951;47.712;9.400;2023-05-07T12:46:30;23.90;99.90
5850;DHT22;2951;47.712;9.400;2023-05-07T12:48:57;24.00;99.90
5850;DHT22;2951;47.712;9.400;2023-05-07T12:51:24;23.70;99.90
5850;DHT22;2951;47.712;9.400;2023-05-07T12:53:51;24.10;99.90
5850;DHT22;2951;47.712;9.400;2023-05-07T12:56:22;23.70;99.90
5850;DHT22;2951;47.712;9.400;2023-05-07T12:58:49;23.70;99.90
5850;DHT22;2951;47.712;9.400;2023-05-07T13:01:16;23.80;99.90
5850;DHT22;2951;47.712;9.400;2023-05-07T13:03:48;23.70;99.90
5850;DHT22;2951;47.712;9.400;2023-05-07T13:06:15;23.90;99.90
5850;DHT22;2951;47.712;9.400;2023-05-07T13:08:42;23.70;99.90
5850;DHT22;2951;47.712;9.400;2023-05-07T13:11:12;23.30;99.90
5850;DHT22;2951;47.712;9.400;2023-05-07T13:13:39;23.30;99.90
5850;DHT22;2951;47.712;9.400;2023-05-07T13:16:08;23.20;99.90
5850;DHT22;2951;47.712;9.400;2023-05-07T13:18:35;23.20;99.90
5850;DHT22;2951;47.712;9.400;2023-05-07T13:21:02;23.30;99.90
5850;DHT22;2951;47.712;9.400;2023-05-07T13:23:28;23.60;99.90
5850;DHT22;2951;47.712;9.400;2023-05-07T13:25:56;23.80;99.90
5850;DHT22;2951;47.712;9.400;2023-05-07T13:28:23;23.60;99.90
5850;DHT22;2951;47.712;9.400;2023-05-07T13:30:50;23.50;99.90
5850;DHT22;2951;47.712;9.400;2023-05-07T13:33:18;23.40;99.90
5850;DHT22;2951;47.712;9.400;2023-05-07T13:35:45;23.50;99.90
5850;DHT22;2951;47.712;9.400;2023-05-07T13:38:12;23.40;99.90
5850;DHT22;2951;47.712;9.400;2023-05-07T13:40:38;23.30;99.90
5850;DHT22;2951;47.712;9.400;2023-05-07T13:43:05;23.10;99.90
5850;DHT22;2951;47.712;9.400;2023-05-07T13:45:32;23.20;99.90
5850;DHT22;2951;47.712;9.400;2023-05-07T13:47:58;23.20;99.90
5850;DHT22;2951;47.712;9.400;2023-05-07T13:50:25;23.20;99.90
5850;DHT22;2951;47.712;9.400;2023-05-07T13:52:56;23.10;99.90
5850;DHT22;2951;47.712;9.400;2023-05-07T13:55:23;23.40;99.90
5850;DHT22;2951;47.712;9.400;2023-05-07T13:57:57;23.10;99.90
5850;DHT22;2951;47.712;9.400;2023-05-07T14:00:24;23.20;99.90
5850;DHT22;2951;47.712;9.400;2023-05-07T14:02:51;23.50;99.90
5850;DHT22;2951;47.712;9.400;2023-05-07T14:05:18;23.90;99.90
5850;DHT22;2951;47.712;9.400;2023-05-07T14:07:45;24.30;99.90
5850;DHT22;2951;47.712;9.400;2023-05-07T14:10:12;24.40;99.90
5850;DHT22;2951;47.712;9.400;2023-05-07T14:12:39;24.10;99.90
5850;DHT22;2951;47.712;9.400;2023-05-07T14:15:07;23.90;99.90
5850;DHT22;2951;47.712;9.400;2023-05-07T14:17:34;23.40;99.90
5850;DHT22;2951;47.712;9.400;2023-05-07T14:20:01;23.00;99.90
5850;DHT22;2951;47.712;9.400;2023-05-07T14:22:27;23.30;99.90
5850;DHT22;2951;47.712;9.400;2023-05-07T14:24:54;23.50;99.90
5850;DHT22;2951;47.712;9.400;2023-05-07T14:27:31;23.40;99.90
5850;DHT22;2951;47.712;9.400;2023-05-07T14:29:58;23.20;99.90
5850;DHT22;2951;47.712;9.400;2023-05-07T14:32:25;23.20;99.90
5850;DHT22;2951;47.712;9.400;2023-05-07T14:34:51;23.20;99.90
5850;DHT22;2951;47.712;9.400;2023-05-07T14:37:18;23.60;99.90
5850;DHT22;2951;47.712;9.400;2023-05-07T14:39:46;23.50;99.90
5850;DHT22;2951;47.712;9.400;2023-05-07T14:42:15;23.40;99.90
5850;DHT22;2951;47.712;9.400;2023-05-07T14:44:42;23.10;99.90
5850;DHT22;2951;47.712;9.400;2023-05-07T14:47:09;22.90;99.90
5850;DHT22;2951;47.712;9.400;2023-05-07T14:49:36;22.60;99.90
5850;DHT22;2951;47.712;9.400;2023-05-07T14:52:03;22.50;99.90
5850;DHT22;2951;47.712;9.400;2023-05-07T14:54:30;22.50;99.90
5850;DHT22;2951;47.712;9.400;2023-05-07T14:57:04;22.90;99.90
5850;DHT22;2951;47.712;9.400;2023-05-07T14:59:31;23.10;99.90
5850;DHT22;2951;47.712;9.400;2023-05-07T15:01:58;23.10;99.90
5850;DHT22;2951;47.712;9.400;2023-05-07T15:04:25;23.80;99.90
5850;DHT22;2951;47.712;9.400;2023-05-07T15:06:52;23.50;99.90
5850;DHT22;2951;47.712;9.400;2023-05-07T15:09:22;24.10;99.90
5850;DHT22;2951;47.712;9.400;2023-05-07T15:11:49;24.40;99.90
5850;DHT22;2951;47.712;9.400;2023-05-07T15:14:15;24.40;99.90
5850;DHT22;2951;47.712;9.400;2023-05-07T15:16:42;24.90;99.90
5850;DHT22;2951;47.712;9.400;2023-05-07T15:19:09;24.60;99.90
5850;DHT22;2951;47.712;9.400;2023-05-07T15:21:36;23.90;99.90
5850;DHT22;2951;47.712;9.400;2023-05-07T15:24:03;23.20;99.90
5850;DHT22;2951;47.712;9.400;2023-05-07T15:26:29;23.10;99.90
5850;DHT22;2951;47.712;9.400;2023-05-07T15:28:56;22.70;99.90
5850;DHT22;2951;47.712;9.400;2023-05-07T15:31:24;22.80;99.90
5850;DHT22;2951;47.712;9.400;2023-05-07T15:33:51;22.60;99.90
5850;DHT22;2951;47.712;9.400;2023-05-07T15:36:22;22.40;99.90
5850;DHT22;2951;47.712;9.400;2023-05-07T15:38:50;22.20;99.90
5850;DHT22;2951;47.712;9.400;2023-05-07T15:41:17;22.20;99.90
5850;DHT22;2951;47.712;9.400;2023-05-07T15:43:48;22.20;99.90
5850;DHT22;2951;47.712;9.400;2023-05-07T15:46:19;22.20;99.90
5850;DHT22;2951;47.712;9.400;2023-05-07T15:48:46;22.20;99.90
5850;DHT22;2951;47.712;9.400;2023-05-07T15:51:13;22.20;99.90
5850;DHT22;2951;47.712;9.400;2023-05-07T15:53:40;22.10;99.90
5850;DHT22;2951;47.712;9.400;2023-05-07T15:56:07;22.00;99.90
5850;DHT22;2951;47.712;9.400;2023-05-07T15:58:34;21.90;99.90
5850;DHT22;2951;47.712;9.400;2023-05-07T16:01:01;21.90;99.90
5850;DHT22;2951;47.712;9.400;2023-05-07T16:03:29;22.00;99.90
5850;DHT22;2951;47.712;9.400;2023-05-07T16:05:56;21.80;99.90
5850;DHT22;2951;47.712;9.400;2023-05-07T16:08:28;21.70;99.90
5850;DHT22;2951;47.712;9.400;2023-05-07T16:10:55;21.60;99.90
5850;DHT22;2951;47.712;9.400;2023-05-07T16:13:21;21.30;99.90
5850;DHT22;2951;47.712;9.400;2023-05-07T16:15:56;21.30;99.90
5850;DHT22;2951;47.712;9.400;2023-05-07T16:18:23;21.30;99.90
5850;DHT22;2951;47.712;9.400;2023-05-07T16:20:50;21.20;99.90
5850;DHT22;2951;47.712;9.400;2023-05-07T16:23:17;21.10;99.90